sensor_id;sensor_type;location;lat;lon;timestamp;pressure;altitude;pressure_sealevel;temperature;humidity
35419;BME280;21525;41.240;16.500;2022-10-26T00:01:12;101853.75;;;25.70;82.34
35419;BME280;21525;41.240;16.500;2022-10-26T00:03:39;101863.25;;;25.29;84.01
35419;BME280;21525;41.240;16.500;2022-10-26T00:06:08;101859.22;;;25.83;80.95
35419;BME280;21525;41.240;16.500;2022-10-26T00:08:34;101861.72;;;25.86;81.43
35419;BME280;21525;41.240;16.500;2022-10-26T00:11:00;101865.66;;;25.33;82.84
35419;BME280;21525;41.240;16.500;2022-10-26T00:13:26;101860.66;;;25.27;82.74
35419;BME280;21525;41.240;16.500;2022-10-26T00:15:53;101860.97;;;25.53;82.72
35419;BME280;21525;41.240;16.500;2022-10-26T00:18:19;101857.25;;;25.71;80.70
35419;BME280;21525;41.240;16.500;2022-10-26T00:20:45;101857.19;;;25.57;81.47
35419;BME280;21525;41.240;16.500;2022-10-26T00:23:10;101850.19;;;26.30;77.94
35419;BME280;21525;41.240;16.500;2022-10-26T00:25:36;101844.41;;;25.93;78.46
35419;BME280;21525;41.240;16.500;2022-10-26T00:28:02;101846.84;;;25.82;78.58
35419;BME280;21525;41.240;16.500;2022-10-26T00:30:28;101841.56;;;25.96;78.44
35419;BME280;21525;41.240;16.500;2022-10-26T00:32:54;101833.16;;;25.88;78.10
35419;BME280;21525;41.240;16.500;2022-10-26T00:35:19;101848.16;;;25.75;79.25
35419;BME280;21525;41.240;16.500;2022-10-26T00:37:45;101847.78;;;25.81;79.57
35419;BME280;21525;41.240;16.500;2022-10-26T00:40:11;101850.63;;;25.78;78.62
35419;BME280;21525;41.240;16.500;2022-10-26T00:42:37;101853.75;;;25.55;80.42
35419;BME280;21525;41.240;16.500;2022-10-26T00:45:19;101862.16;;;25.63;79.32
35419;BME280;21525;41.240;16.500;2022-10-26T00:47:49;101865.13;;;25.27;81.65
35419;BME280;21525;41.240;16.500;2022-10-26T00:50:34;101859.09;;;25.39;80.59
35419;BME280;21525;41.240;16.500;2022-10-26T00:53:03;101861.47;;;25.75;79.08
35419;BME280;21525;41.240;16.500;2022-10-26T00:55:49;101853.19;;;25.65;79.38
35419;BME280;21525;41.240;16.500;2022-10-26T00:58:15;101854.44;;;25.42;79.90
35419;BME280;21525;41.240;16.500;2022-10-26T01:00:42;101851.22;;;25.83;77.79
35419;BME280;21525;41.240;16.500;2022-10-26T01:03:09;101856.41;;;25.55;79.35
35419;BME280;21525;41.240;16.500;2022-10-26T01:05:38;101857.66;;;25.65;78.38
35419;BME280;21525;41.240;16.500;2022-10-26T01:08:05;101856.50;;;25.69;78.00
35419;BME280;21525;41.240;16.500;2022-10-26T01:10:32;101857.31;;;25.24;81.65
35419;BME280;21525;41.240;16.500;2022-10-26T01:12:59;101861.50;;;25.59;79.84
35419;BME280;21525;41.240;16.500;2022-10-26T01:15:37;101857.19;;;25.57;78.86
35419;BME280;21525;41.240;16.500;2022-10-26T01:18:28;101859.09;;;25.55;79.13
35419;BME280;21525;41.240;16.500;2022-10-26T01:32:12;101850.34;;;25.37;79.27
35419;BME280;21525;41.240;16.500;2022-10-26T01:34:46;101849.16;;;25.11;80.11
35419;BME280;21525;41.240;16.500;2022-10-26T01:37:21;101856.34;;;25.40;79.51
35419;BME280;21525;41.240;16.500;2022-10-26T01:39:53;101850.41;;;25.35;78.87
35419;BME280;21525;41.240;16.500;2022-10-26T01:42:20;101851.38;;;25.03;79.72
35419;BME280;21525;41.240;16.500;2022-10-26T01:44:52;101847.78;;;25.20;78.53
35419;BME280;21525;41.240;16.500;2022-10-26T01:47:19;101850.78;;;25.14;79.79
35419;BME280;21525;41.240;16.500;2022-10-26T01:49:49;101852.03;;;24.91;80.08
35419;BME280;21525;41.240;16.500;2022-10-26T01:52:18;101840.44;;;24.92;80.49
35419;BME280;21525;41.240;16.500;2022-10-26T01:54:44;101840.97;;;25.45;77.08
35419;BME280;21525;41.240;16.500;2022-10-26T01:57:12;101836.53;;;25.30;77.63
35419;BME280;21525;41.240;16.500;2022-10-26T02:13:18;101833.44;;;25.22;74.99
35419;BME280;21525;41.240;16.500;2022-10-26T02:16:53;101828.78;;;25.10;75.11
35419;BME280;21525;41.240;16.500;2022-10-26T02:19:08;101826.00;;;24.80;75.80
35419;BME280;21525;41.240;16.500;2022-10-26T02:21:43;101829.53;;;24.81;75.56
35419;BME280;21525;41.240;16.500;2022-10-26T02:24:12;101827.81;;;25.42;72.85
35419;BME280;21525;41.240;16.500;2022-10-26T02:26:40;101821.59;;;25.28;73.16
35419;BME280;21525;41.240;16.500;2022-10-26T02:29:14;101819.06;;;25.40;70.96
35419;BME280;21525;41.240;16.500;2022-10-26T02:31:40;101816.25;;;25.28;71.64
35419;BME280;21525;41.240;16.500;2022-10-26T02:34:10;101822.56;;;25.41;70.75
35419;BME280;21525;41.240;16.500;2022-10-26T02:36:40;101810.75;;;25.31;71.04
35419;BME280;21525;41.240;16.500;2022-10-26T02:39:09;101812.59;;;25.44;69.52
35419;BME280;21525;41.240;16.500;2022-10-26T02:41:38;101809.31;;;25.71;68.21
35419;BME280;21525;41.240;16.500;2022-10-26T02:44:20;101808.81;;;25.94;67.17
35419;BME280;21525;41.240;16.500;2022-10-26T02:46:48;101810.44;;;25.97;66.44
35419;BME280;21525;41.240;16.500;2022-10-26T02:49:15;101813.63;;;25.42;68.64
35419;BME280;21525;41.240;16.500;2022-10-26T02:52:00;101805.59;;;25.73;67.09
35419;BME280;21525;41.240;16.500;2022-10-26T02:57:39;101811.38;;;25.04;69.07
35419;BME280;21525;41.240;16.500;2022-10-26T03:00:12;101812.91;;;25.24;68.86
35419;BME280;21525;41.240;16.500;2022-10-26T03:02:41;101818.88;;;25.43;67.28
35419;BME280;21525;41.240;16.500;2022-10-26T03:07:36;101825.50;;;25.52;66.00
35419;BME280;21525;41.240;16.500;2022-10-26T03:10:02;101829.50;;;25.29;67.71
35419;BME280;21525;41.240;16.500;2022-10-26T03:12:27;101831.22;;;25.30;67.28
35419;BME280;21525;41.240;16.500;2022-10-26T03:14:53;101830.09;;;25.19;66.95
35419;BME280;21525;41.240;16.500;2022-10-26T03:17:19;101832.91;;;25.16;67.54
35419;BME280;21525;41.240;16.500;2022-10-26T03:19:44;101827.16;;;25.07;67.30
35419;BME280;21525;41.240;16.500;2022-10-26T03:22:10;101816.19;;;25.29;66.12
35419;BME280;21525;41.240;16.500;2022-10-26T03:24:36;101816.75;;;25.66;64.74
35419;BME280;21525;41.240;16.500;2022-10-26T03:27:02;101824.59;;;25.22;65.25
35419;BME280;21525;41.240;16.500;2022-10-26T03:29:27;101825.25;;;24.94;66.69
35419;BME280;21525;41.240;16.500;2022-10-26T03:31:53;101820.63;;;25.13;66.63
35419;BME280;21525;41.240;16.500;2022-10-26T03:34:20;101822.16;;;24.86;66.74
35419;BME280;21525;41.240;16.500;2022-10-26T03:36:46;101836.25;;;24.88;67.05
35419;BME280;21525;41.240;16.500;2022-10-26T03:39:12;101827.50;;;25.17;65.59
35419;BME280;21525;41.240;16.500;2022-10-26T03:41:37;101825.69;;;25.02;65.48
35419;BME280;21525;41.240;16.500;2022-10-26T03:44:03;101823.31;;;24.97;65.79
35419;BME280;21525;41.240;16.500;2022-10-26T03:46:29;101827.66;;;24.83;65.93
35419;BME280;21525;41.240;16.500;2022-10-26T03:48:55;101829.63;;;24.30;67.81
35419;BME280;21525;41.240;16.500;2022-10-26T03:51:21;101834.31;;;24.74;66.13
35419;BME280;21525;41.240;16.500;2022-10-26T03:53:46;101839.59;;;24.42;66.99
35419;BME280;21525;41.240;16.500;2022-10-26T03:56:12;101836.72;;;24.96;65.17
35419;BME280;21525;41.240;16.500;2022-10-26T03:58:38;101835.06;;;25.09;64.36
35419;BME280;21525;41.240;16.500;2022-10-26T04:01:03;101836.97;;;24.74;65.19
35419;BME280;21525;41.240;16.500;2022-10-26T04:03:29;101840.09;;;24.82;65.01
35419;BME280;21525;41.240;16.500;2022-10-26T04:05:55;101834.34;;;25.37;62.87
35419;BME280;21525;41.240;16.500;2022-10-26T04:08:22;101834.66;;;25.32;63.15
35419;BME280;21525;41.240;16.500;2022-10-26T04:10:48;101839.50;;;24.93;63.23
35419;BME280;21525;41.240;16.500;2022-10-26T04:13:14;101840.63;;;24.89;63.68
35419;BME280;21525;41.240;16.500;2022-10-26T04:15:39;101846.31;;;25.14;62.45
35419;BME280;21525;41.240;16.500;2022-10-26T04:18:05;101849.00;;;25.30;62.23
35419;BME280;21525;41.240;16.500;2022-10-26T04:20:32;101851.56;;;25.00;62.53
35419;BME280;21525;41.240;16.500;2022-10-26T04:23:01;101853.47;;;25.29;61.53
35419;BME280;21525;41.240;16.500;2022-10-26T04:25:28;101852.94;;;25.23;61.65
35419;BME280;21525;41.240;16.500;2022-10-26T04:27:54;101856.63;;;24.71;63.28
35419;BME280;21525;41.240;16.500;2022-10-26T04:30:20;101847.44;;;25.10;62.39
35419;BME280;21525;41.240;16.500;2022-10-26T04:32:46;101853.97;;;25.20;61.68
35419;BME280;21525;41.240;16.500;2022-10-26T04:35:12;101851.97;;;25.08;61.83
35419;BME280;21525;41.240;16.500;2022-10-26T04:37:37;101855.16;;;25.30;60.81
35419;BME280;21525;41.240;16.500;2022-10-26T04:40:03;101853.28;;;25.01;62.05
35419;BME280;21525;41.240;16.500;2022-10-26T04:42:29;101860.31;;;25.18;61.11
35419;BME280;21525;41.240;16.500;2022-10-26T04:44:59;101863.63;;;24.90;61.74
35419;BME280;21525;41.240;16.500;2022-10-26T04:47:24;101864.88;;;25.00;61.27
35419;BME280;21525;41.240;16.500;2022-10-26T04:49:50;101866.00;;;24.96;61.81
35419;BME280;21525;41.240;16.500;2022-10-26T04:52:16;101868.34;;;24.69;62.15
35419;BME280;21525;41.240;16.500;2022-10-26T04:54:42;101870.63;;;25.08;61.03
35419;BME280;21525;41.240;16.500;2022-10-26T04:57:07;101868.88;;;24.91;61.68
35419;BME280;21525;41.240;16.500;2022-10-26T04:59:33;101861.44;;;24.98;61.48
35419;BME280;21525;41.240;16.500;2022-10-26T05:01:59;101868.06;;;24.73;61.42
35419;BME280;21525;41.240;16.500;2022-10-26T05:04:24;101876.78;;;24.60;62.16
35419;BME280;21525;41.240;16.500;2022-10-26T05:06:51;101874.00;;;24.78;61.54
35419;BME280;21525;41.240;16.500;2022-10-26T05:09:18;101877.59;;;24.77;61.30
35419;BME280;21525;41.240;16.500;2022-10-26T05:11:44;101868.78;;;24.93;60.85
35419;BME280;21525;41.240;16.500;2022-10-26T05:14:09;101874.38;;;25.04;60.38
35419;BME280;21525;41.240;16.500;2022-10-26T05:16:37;101868.69;;;24.94;59.82
35419;BME280;21525;41.240;16.500;2022-10-26T05:19:03;101872.66;;;25.03;60.23
35419;BME280;21525;41.240;16.500;2022-10-26T05:21:29;101881.47;;;24.88;60.39
35419;BME280;21525;41.240;16.500;2022-10-26T05:23:55;101875.06;;;24.92;59.92
35419;BME280;21525;41.240;16.500;2022-10-26T05:26:22;101876.66;;;25.27;58.87
35419;BME280;21525;41.240;16.500;2022-10-26T05:28:48;101890.97;;;24.76;60.39
35419;BME280;21525;41.240;16.500;2022-10-26T05:31:14;101888.31;;;25.09;58.96
35419;BME280;21525;41.240;16.500;2022-10-26T05:33:40;101888.75;;;25.17;58.70
35419;BME280;21525;41.240;16.500;2022-10-26T05:36:06;101889.78;;;25.30;58.46
35419;BME280;21525;41.240;16.500;2022-10-26T05:38:32;101894.16;;;25.16;58.61
35419;BME280;21525;41.240;16.500;2022-10-26T05:40:57;101885.91;;;25.52;57.62
35419;BME280;21525;41.240;16.500;2022-10-26T05:43:26;101885.25;;;25.32;57.52
35419;BME280;21525;41.240;16.500;2022-10-26T05:45:53;101897.34;;;25.22;57.57
35419;BME280;21525;41.240;16.500;2022-10-26T05:48:19;101900.91;;;25.05;58.07
35419;BME280;21525;41.240;16.500;2022-10-26T05:50:45;101896.53;;;25.67;56.39
35419;BME280;21525;41.240;16.500;2022-10-26T05:53:11;101906.34;;;25.83;56.25
35419;BME280;21525;41.240;16.500;2022-10-26T05:55:37;101902.22;;;25.77;55.32
35419;BME280;21525;41.240;16.500;2022-10-26T05:58:03;101903.31;;;26.19;54.46
35419;BME280;21525;41.240;16.500;2022-10-26T06:00:33;101903.44;;;26.01;55.40
35419;BME280;21525;41.240;16.500;2022-10-26T06:05:49;101892.91;;;28.23;50.43
35419;BME280;21525;41.240;16.500;2022-10-26T06:08:15;101892.94;;;29.10;47.74
35419;BME280;21525;41.240;16.500;2022-10-26T06:10:41;101906.69;;;28.80;46.72
35419;BME280;21525;41.240;16.500;2022-10-26T06:13:07;101899.06;;;29.36;46.34
35419;BME280;21525;41.240;16.500;2022-10-26T06:15:45;101901.66;;;29.37;45.11
35419;BME280;21525;41.240;16.500;2022-10-26T06:24:34;101898.63;;;30.25;42.78
35419;BME280;21525;41.240;16.500;2022-10-26T06:32:14;101917.31;;;31.92;39.55
35419;BME280;21525;41.240;16.500;2022-10-26T06:34:45;101908.34;;;31.82;39.45
35419;BME280;21525;41.240;16.500;2022-10-26T06:37:13;101907.28;;;32.57;38.93
35419;BME280;21525;41.240;16.500;2022-10-26T06:39:43;101918.81;;;33.49;37.71
35419;BME280;21525;41.240;16.500;2022-10-26T06:42:11;101915.78;;;33.13;37.60
35419;BME280;21525;41.240;16.500;2022-10-26T06:44:37;101921.41;;;33.60;36.40
35419;BME280;21525;41.240;16.500;2022-10-26T06:47:15;101913.47;;;34.07;36.08
35419;BME280;21525;41.240;16.500;2022-10-26T06:50:03;101914.34;;;34.63;35.61
35419;BME280;21525;41.240;16.500;2022-10-26T06:52:39;101921.34;;;34.56;34.74
35419;BME280;21525;41.240;16.500;2022-10-26T06:55:13;101925.25;;;34.25;35.20
35419;BME280;21525;41.240;16.500;2022-10-26T06:57:41;101920.00;;;34.80;34.25
35419;BME280;21525;41.240;16.500;2022-10-26T07:00:16;101916.88;;;35.39;33.61
35419;BME280;21525;41.240;16.500;2022-10-26T07:02:44;101922.81;;;34.78;33.90
35419;BME280;21525;41.240;16.500;2022-10-26T07:05:10;101919.59;;;35.92;33.19
35419;BME280;21525;41.240;16.500;2022-10-26T07:07:42;101930.16;;;35.05;33.90
35419;BME280;21525;41.240;16.500;2022-10-26T07:10:09;101936.41;;;36.22;32.93
35419;BME280;21525;41.240;16.500;2022-10-26T07:12:36;101933.91;;;35.85;32.70
35419;BME280;21525;41.240;16.500;2022-10-26T07:15:02;101935.88;;;36.18;32.47
35419;BME280;21525;41.240;16.500;2022-10-26T07:17:29;101936.72;;;36.62;31.65
35419;BME280;21525;41.240;16.500;2022-10-26T07:19:56;101927.44;;;36.99;31.48
35419;BME280;21525;41.240;16.500;2022-10-26T07:22:22;101926.03;;;37.29;31.05
35419;BME280;21525;41.240;16.500;2022-10-26T07:24:49;101938.94;;;37.43;31.16
35419;BME280;21525;41.240;16.500;2022-10-26T07:27:17;101936.53;;;37.24;31.04
35419;BME280;21525;41.240;16.500;2022-10-26T07:29:44;101931.06;;;37.90;30.55
35419;BME280;21525;41.240;16.500;2022-10-26T07:32:10;101942.06;;;38.62;29.65
35419;BME280;21525;41.240;16.500;2022-10-26T07:34:35;101945.47;;;37.67;30.55
35419;BME280;21525;41.240;16.500;2022-10-26T07:37:01;101941.91;;;38.07;30.52
35419;BME280;21525;41.240;16.500;2022-10-26T07:39:27;101946.63;;;37.14;30.47
35419;BME280;21525;41.240;16.500;2022-10-26T07:41:53;101931.72;;;38.33;29.91
35419;BME280;21525;41.240;16.500;2022-10-26T07:44:18;101941.91;;;37.90;30.33
35419;BME280;21525;41.240;16.500;2022-10-26T07:46:44;101934.97;;;37.96;30.24
35419;BME280;21525;41.240;16.500;2022-10-26T07:49:10;101931.88;;;39.03;28.69
35419;BME280;21525;41.240;16.500;2022-10-26T07:51:36;101929.22;;;38.87;28.81
35419;BME280;21525;41.240;16.500;2022-10-26T07:54:01;101933.34;;;39.14;28.54
35419;BME280;21525;41.240;16.500;2022-10-26T07:56:27;101933.34;;;39.45;28.45
35419;BME280;21525;41.240;16.500;2022-10-26T07:58:54;101934.53;;;39.73;28.23
35419;BME280;21525;41.240;16.500;2022-10-26T08:01:20;101938.72;;;39.61;28.22
35419;BME280;21525;41.240;16.500;2022-10-26T08:03:47;101934.16;;;39.22;28.12
35419;BME280;21525;41.240;16.500;2022-10-26T08:06:15;101941.91;;;39.34;28.60
35419;BME280;21525;41.240;16.500;2022-10-26T08:08:41;101944.38;;;38.73;29.34
35419;BME280;21525;41.240;16.500;2022-10-26T08:11:07;101946.16;;;38.25;29.55
35419;BME280;21525;41.240;16.500;2022-10-26T08:13:32;101958.22;;;37.90;29.76
35419;BME280;21525;41.240;16.500;2022-10-26T08:16:02;101965.59;;;37.56;30.08
35419;BME280;21525;41.240;16.500;2022-10-26T08:18:28;101963.69;;;36.98;30.80
35419;BME280;21525;41.240;16.500;2022-10-26T08:20:54;101957.91;;;36.93;30.59
35419;BME280;21525;41.240;16.500;2022-10-26T08:23:25;101963.91;;;36.79;30.93
35419;BME280;21525;41.240;16.500;2022-10-26T08:25:51;101966.63;;;36.53;31.81
35419;BME280;21525;41.240;16.500;2022-10-26T08:28:17;101966.63;;;36.53;31.64
35419;BME280;21525;41.240;16.500;2022-10-26T08:30:42;101962.81;;;36.72;31.67
35419;BME280;21525;41.240;16.500;2022-10-26T08:33:08;101966.00;;;36.85;31.42
35419;BME280;21525;41.240;16.500;2022-10-26T08:35:35;101968.38;;;36.36;32.00
35419;BME280;21525;41.240;16.500;2022-10-26T08:38:01;101975.72;;;36.70;31.63
35419;BME280;21525;41.240;16.500;2022-10-26T08:40:29;101972.56;;;36.56;31.38
35419;BME280;21525;41.240;16.500;2022-10-26T08:43:27;101970.50;;;36.50;31.45
35419;BME280;21525;41.240;16.500;2022-10-26T08:48:54;101974.19;;;36.67;31.33
35419;BME280;21525;41.240;16.500;2022-10-26T08:51:31;101964.13;;;36.59;31.10
35419;BME280;21525;41.240;16.500;2022-10-26T08:56:54;101967.16;;;36.82;31.20
35419;BME280;21525;41.240;16.500;2022-10-26T08:59:33;101970.19;;;36.53;31.45
35419;BME280;21525;41.240;16.500;2022-10-26T09:02:00;101973.69;;;35.57;32.45
35419;BME280;21525;41.240;16.500;2022-10-26T09:04:29;101971.50;;;35.88;32.33
35419;BME280;21525;41.240;16.500;2022-10-26T09:15:51;101979.19;;;36.80;31.40
35419;BME280;21525;41.240;16.500;2022-10-26T09:24:08;101976.38;;;36.72;31.76
35419;BME280;21525;41.240;16.500;2022-10-26T09:26:49;101993.09;;;36.33;32.51
35419;BME280;21525;41.240;16.500;2022-10-26T09:29:18;101989.38;;;35.98;33.15
35419;BME280;21525;41.240;16.500;2022-10-26T09:31:47;101985.09;;;36.14;33.48
35419;BME280;21525;41.240;16.500;2022-10-26T09:34:25;101988.00;;;36.56;32.83
35419;BME280;21525;41.240;16.500;2022-10-26T09:36:53;101994.78;;;35.98;33.70
35419;BME280;21525;41.240;16.500;2022-10-26T09:39:45;101993.78;;;36.35;33.50
35419;BME280;21525;41.240;16.500;2022-10-26T09:42:19;101997.50;;;36.34;33.66
35419;BME280;21525;41.240;16.500;2022-10-26T09:44:58;101991.31;;;36.50;33.55
35419;BME280;21525;41.240;16.500;2022-10-26T09:47:34;102002.06;;;36.33;33.89
35419;BME280;21525;41.240;16.500;2022-10-26T09:52:31;102003.13;;;35.87;35.13
35419;BME280;21525;41.240;16.500;2022-10-26T09:54:56;102002.81;;;36.70;34.36
35419;BME280;21525;41.240;16.500;2022-10-26T09:57:22;102007.13;;;36.19;34.72
35419;BME280;21525;41.240;16.500;2022-10-26T09:59:48;102011.34;;;35.95;35.20
35419;BME280;21525;41.240;16.500;2022-10-26T10:02:39;102008.84;;;35.84;35.25
35419;BME280;21525;41.240;16.500;2022-10-26T10:05:30;102010.63;;;36.11;34.35
35419;BME280;21525;41.240;16.500;2022-10-26T10:11:04;102007.75;;;35.22;36.06
35419;BME280;21525;41.240;16.500;2022-10-26T10:13:39;102005.09;;;35.67;35.51
35419;BME280;21525;41.240;16.500;2022-10-26T10:16:19;102009.28;;;35.62;35.83
35419;BME280;21525;41.240;16.500;2022-10-26T10:18:56;102001.13;;;35.89;35.22
35419;BME280;21525;41.240;16.500;2022-10-26T10:21:49;102006.78;;;35.96;34.62
35419;BME280;21525;41.240;16.500;2022-10-26T10:24:24;102002.81;;;35.45;34.84
35419;BME280;21525;41.240;16.500;2022-10-26T10:27:23;102006.97;;;34.46;35.93
35419;BME280;21525;41.240;16.500;2022-10-26T10:29:54;102000.94;;;34.72;36.16
35419;BME280;21525;41.240;16.500;2022-10-26T10:32:30;101998.47;;;34.97;35.31
35419;BME280;21525;41.240;16.500;2022-10-26T10:34:58;101995.66;;;34.89;35.41
35419;BME280;21525;41.240;16.500;2022-10-26T10:40:06;102000.03;;;35.27;34.42
35419;BME280;21525;41.240;16.500;2022-10-26T10:42:35;101996.25;;;35.11;34.65
35419;BME280;21525;41.240;16.500;2022-10-26T10:45:05;101995.22;;;35.21;34.53
35419;BME280;21525;41.240;16.500;2022-10-26T10:47:35;101998.13;;;35.10;34.02
35419;BME280;21525;41.240;16.500;2022-10-26T10:52:30;101987.91;;;35.04;35.26
35419;BME280;21525;41.240;16.500;2022-10-26T11:00:13;101989.75;;;33.80;36.75
35419;BME280;21525;41.240;16.500;2022-10-26T11:11:06;101990.88;;;34.54;35.75
35419;BME280;21525;41.240;16.500;2022-10-26T11:13:38;101983.38;;;35.05;34.73
35419;BME280;21525;41.240;16.500;2022-10-26T11:16:11;101992.63;;;34.36;35.07
35419;BME280;21525;41.240;16.500;2022-10-26T11:18:46;101993.28;;;32.69;37.89
35419;BME280;21525;41.240;16.500;2022-10-26T11:21:27;101987.03;;;32.69;37.94
35419;BME280;21525;41.240;16.500;2022-10-26T11:27:20;101991.66;;;33.39;37.60
35419;BME280;21525;41.240;16.500;2022-10-26T11:32:01;101979.09;;;34.17;36.60
35419;BME280;21525;41.240;16.500;2022-10-26T11:34:39;101974.75;;;32.55;38.01
35419;BME280;21525;41.240;16.500;2022-10-26T11:40:18;101971.63;;;33.01;38.35
35419;BME280;21525;41.240;16.500;2022-10-26T11:45:44;101970.28;;;33.76;36.62
35419;BME280;21525;41.240;16.500;2022-10-26T11:48:28;101977.78;;;33.23;37.37
35419;BME280;21525;41.240;16.500;2022-10-26T11:50:56;101970.63;;;33.33;37.42
35419;BME280;21525;41.240;16.500;2022-10-26T11:53:27;101970.09;;;33.58;37.13
35419;BME280;21525;41.240;16.500;2022-10-26T11:55:55;101969.00;;;32.90;37.71
35419;BME280;21525;41.240;16.500;2022-10-26T11:58:24;101955.50;;;32.81;39.14
35419;BME280;21525;41.240;16.500;2022-10-26T12:00:54;101967.25;;;33.41;37.59
35419;BME280;21525;41.240;16.500;2022-10-26T12:03:25;101960.75;;;33.22;37.60
35419;BME280;21525;41.240;16.500;2022-10-26T12:05:52;101949.66;;;32.76;38.37
35419;BME280;21525;41.240;16.500;2022-10-26T12:11:11;101952.09;;;30.85;41.75
35419;BME280;21525;41.240;16.500;2022-10-26T12:14:00;101943.97;;;31.52;40.63
35419;BME280;21525;41.240;16.500;2022-10-26T12:22:18;101935.72;;;33.01;39.38
35419;BME280;21525;41.240;16.500;2022-10-26T12:24:46;101933.78;;;33.22;38.88
35419;BME280;21525;41.240;16.500;2022-10-26T12:27:50;101931.09;;;33.22;38.40
35419;BME280;21525;41.240;16.500;2022-10-26T12:37:59;101930.06;;;33.04;39.17
35419;BME280;21525;41.240;16.500;2022-10-26T12:48:43;101930.78;;;31.92;40.55
35419;BME280;21525;41.240;16.500;2022-10-26T12:59:32;101945.84;;;31.40;41.91
35419;BME280;21525;41.240;16.500;2022-10-26T13:05:00;101936.72;;;31.75;43.04
35419;BME280;21525;41.240;16.500;2022-10-26T13:07:36;101942.03;;;31.43;43.55
35419;BME280;21525;41.240;16.500;2022-10-26T13:12:47;101929.84;;;31.28;43.24
35419;BME280;21525;41.240;16.500;2022-10-26T13:15:20;101936.69;;;30.87;43.62
35419;BME280;21525;41.240;16.500;2022-10-26T13:17:58;101938.41;;;30.99;43.72
35419;BME280;21525;41.240;16.500;2022-10-26T13:20:27;101930.09;;;31.25;43.17
35419;BME280;21525;41.240;16.500;2022-10-26T13:22:53;101942.84;;;30.43;44.94
35419;BME280;21525;41.240;16.500;2022-10-26T13:25:25;101929.00;;;30.71;44.09
35419;BME280;21525;41.240;16.500;2022-10-26T13:28:25;101931.06;;;31.24;42.78
35419;BME280;21525;41.240;16.500;2022-10-26T13:30:51;101930.50;;;31.75;41.72
35419;BME280;21525;41.240;16.500;2022-10-26T13:33:23;101930.69;;;31.39;41.87
35419;BME280;21525;41.240;16.500;2022-10-26T13:35:53;101933.13;;;31.31;42.30
35419;BME280;21525;41.240;16.500;2022-10-26T13:38:22;101932.16;;;31.32;42.08
35419;BME280;21525;41.240;16.500;2022-10-26T13:40:49;101933.91;;;30.78;43.21
35419;BME280;21525;41.240;16.500;2022-10-26T13:43:21;101936.69;;;30.19;44.73
35419;BME280;21525;41.240;16.500;2022-10-26T13:48:27;101934.19;;;29.20;47.06
35419;BME280;21525;41.240;16.500;2022-10-26T13:50:59;101935.75;;;29.48;46.30
35419;BME280;21525;41.240;16.500;2022-10-26T13:53:36;101933.19;;;28.85;48.51
35419;BME280;21525;41.240;16.500;2022-10-26T13:58:57;101932.63;;;29.54;47.64
35419;BME280;21525;41.240;16.500;2022-10-26T14:01:25;101937.84;;;29.80;46.84
35419;BME280;21525;41.240;16.500;2022-10-26T14:03:53;101937.78;;;30.16;46.64
35419;BME280;21525;41.240;16.500;2022-10-26T14:06:29;101937.41;;;30.67;44.61
35419;BME280;21525;41.240;16.500;2022-10-26T14:09:00;101940.00;;;30.33;45.46
35419;BME280;21525;41.240;16.500;2022-10-26T14:11:33;101927.22;;;30.37;44.56
35419;BME280;21525;41.240;16.500;2022-10-26T14:14:01;101931.75;;;30.48;45.32
35419;BME280;21525;41.240;16.500;2022-10-26T14:16:29;101949.66;;;29.53;47.49
35419;BME280;21525;41.240;16.500;2022-10-26T14:18:56;101950.28;;;28.95;49.37
35419;BME280;21525;41.240;16.500;2022-10-26T14:21:22;101946.00;;;29.78;47.85
35419;BME280;21525;41.240;16.500;2022-10-26T14:23:56;101956.66;;;29.43;48.97
35419;BME280;21525;41.240;16.500;2022-10-26T14:26:29;101954.94;;;29.29;49.79
35419;BME280;21525;41.240;16.500;2022-10-26T14:28:59;101956.84;;;28.91;50.54
35419;BME280;21525;41.240;16.500;2022-10-26T14:31:31;101954.41;;;29.24;49.79
35419;BME280;21525;41.240;16.500;2022-10-26T14:33:59;101949.75;;;28.77;51.24
35419;BME280;21525;41.240;16.500;2022-10-26T14:37:00;101948.72;;;29.89;49.37
35419;BME280;21525;41.240;16.500;2022-10-26T14:39:36;101956.19;;;29.86;48.88
35419;BME280;21525;41.240;16.500;2022-10-26T14:42:29;101959.53;;;29.53;49.87
35419;BME280;21525;41.240;16.500;2022-10-26T14:44:57;101951.59;;;30.34;48.22
35419;BME280;21525;41.240;16.500;2022-10-26T14:47:28;101949.38;;;29.69;49.61
35419;BME280;21525;41.240;16.500;2022-10-26T14:49:55;101953.44;;;29.74;49.40
35419;BME280;21525;41.240;16.500;2022-10-26T14:52:33;101943.13;;;29.92;48.91
35419;BME280;21525;41.240;16.500;2022-10-26T14:55:03;101941.16;;;29.83;48.80
35419;BME280;21525;41.240;16.500;2022-10-26T14:57:34;101943.72;;;29.85;48.32
35419;BME280;21525;41.240;16.500;2022-10-26T15:00:21;101945.75;;;29.57;48.54
35419;BME280;21525;41.240;16.500;2022-10-26T15:02:49;101944.47;;;30.11;47.66
35419;BME280;21525;41.240;16.500;2022-10-26T15:05:28;101947.09;;;29.39;48.91
35419;BME280;21525;41.240;16.500;2022-10-26T15:07:55;101946.00;;;28.54;52.45
35419;BME280;21525;41.240;16.500;2022-10-26T15:13:21;101947.19;;;28.75;52.21
35419;BME280;21525;41.240;16.500;2022-10-26T15:15:50;101941.50;;;28.67;52.20
35419;BME280;21525;41.240;16.500;2022-10-26T15:18:27;101944.63;;;29.36;50.70
35419;BME280;21525;41.240;16.500;2022-10-26T15:20:54;101959.44;;;29.41;50.47
35419;BME280;21525;41.240;16.500;2022-10-26T15:23:22;101955.38;;;29.72;49.23